createdAt,value
2023-02-19T00:02:02.645Z,14.57
2023-02-19T00:04:09.488Z,20.10
2023-02-19T00:06:14.820Z,12.48
2023-02-19T00:08:22.279Z,17.25
2023-02-19T00:10:27.545Z,15.38
2023-02-19T00:12:32.318Z,20.42
2023-02-19T00:14:37.241Z,12.70
2023-02-19T00:16:43.992Z,17.27
2023-02-19T00:18:53.807Z,19.77
2023-02-19T00:20:59.876Z,13.82
2023-02-19T00:23:05.262Z,14.98
2023-02-19T00:25:12.746Z,21.52
2023-02-19T00:27:17.970Z,13.52
2023-02-19T00:29:25.236Z,17.88
2023-02-19T00:31:33.194Z,13.52
2023-02-19T00:33:38.978Z,18.33
2023-02-19T00:35:46.512Z,21.48
2023-02-19T00:37:53.006Z,16.23
2023-02-19T00:39:58.516Z,17.42
2023-02-19T00:42:05.959Z,18.85
2023-02-19T00:44:13.724Z,13.13
2023-02-19T00:46:19.773Z,12.48
2023-02-19T00:48:24.787Z,16.88
2023-02-19T00:50:29.946Z,13.05
2023-02-19T00:52:34.919Z,15.15
2023-02-19T00:54:54.766Z,15.23
2023-02-19T00:57:00.061Z,13.32
2023-02-19T00:59:07.517Z,10.25
2023-02-19T01:01:18.035Z,10.63
2023-02-19T01:03:23.134Z,12.48
2023-02-19T01:05:28.108Z,16.42
2023-02-19T01:07:33.271Z,13.50
2023-02-19T01:09:38.429Z,15.23
2023-02-19T01:11:48.401Z,13.30
2023-02-19T01:13:55.571Z,15.30
2023-02-19T01:16:09.962Z,10.60
2023-02-19T01:18:17.498Z,12.25
2023-02-19T01:20:22.738Z,13.13
2023-02-19T01:22:27.790Z,17.00
2023-02-19T01:24:32.727Z,12.13
2023-02-19T01:26:37.532Z,14.10
2023-02-19T01:28:42.928Z,18.13
2023-02-19T01:30:48.098Z,11.60
2023-02-19T01:32:55.749Z,15.73
2023-02-19T01:35:00.537Z,11.07
2023-02-19T01:37:05.908Z,12.98
2023-02-19T01:39:10.830Z,15.65
2023-02-19T01:41:19.440Z,12.23
2023-02-19T01:43:24.241Z,18.17
2023-02-19T01:45:32.049Z,14.00
2023-02-19T01:47:36.864Z,15.93
2023-02-19T01:49:50.525Z,14.32
2023-02-19T01:52:00.798Z,13.93
2023-02-19T01:54:09.095Z,10.07
2023-02-19T01:56:19.060Z,17.60
2023-02-19T01:58:24.351Z,14.52
2023-02-19T02:00:30.177Z,14.20
2023-02-19T02:02:35.414Z,13.75
2023-02-19T02:04:40.737Z,13.50
2023-02-19T02:06:53.074Z,15.02
2023-02-19T02:09:12.203Z,8.88
2023-02-19T02:11:18.749Z,10.90
2023-02-19T02:13:24.359Z,12.73
2023-02-19T02:15:37.576Z,12.93
2023-02-19T02:17:50.655Z,10.48
2023-02-19T02:24:40.306Z,10.48
2023-02-19T02:27:04.293Z,19.02
2023-02-19T02:29:51.204Z,13.65
2023-02-19T02:32:01.948Z,15.35
2023-02-19T02:34:12.881Z,10.88
2023-02-19T02:36:21.553Z,11.45
2023-02-19T02:38:30.334Z,13.57
2023-02-19T02:40:35.425Z,10.05
2023-02-19T02:42:43.046Z,21.45
2023-02-19T02:45:03.874Z,12.25
2023-02-19T02:47:34.287Z,20.92
2023-02-19T02:50:02.708Z,11.95
2023-02-19T02:52:28.043Z,13.50
2023-02-19T02:54:49.002Z,17.83
2023-02-19T02:56:55.654Z,11.77
2023-02-19T02:59:04.115Z,14.65
2023-02-19T03:01:25.503Z,13.77
2023-02-19T03:03:37.347Z,14.35
2023-02-19T03:05:51.962Z,16.17
2023-02-19T03:08:01.100Z,16.40
2023-02-19T03:10:11.980Z,13.05
2023-02-19T03:12:35.570Z,18.15
2023-02-19T03:14:56.644Z,14.05
2023-02-19T03:17:27.589Z,15.07
2023-02-19T03:19:43.799Z,14.60
2023-02-19T03:21:57.664Z,15.10
2023-02-19T03:24:15.571Z,13.38
2023-02-19T03:26:22.634Z,15.32
2023-02-19T03:28:47.103Z,18.05
2023-02-19T03:30:59.687Z,19.42
2023-02-19T03:33:09.096Z,15.10
2023-02-19T03:35:20.666Z,14.05
2023-02-19T03:37:32.198Z,14.80
2023-02-19T03:39:46.589Z,25.38
2023-02-19T03:41:59.096Z,15.43
2023-02-19T03:44:14.784Z,12.60
2023-02-19T03:46:26.636Z,16.52
2023-02-19T03:48:37.645Z,15.20
2023-02-19T03:50:52.960Z,16.73
2023-02-19T03:53:06.646Z,17.52
2023-02-19T03:55:17.924Z,15.13
2023-02-19T03:57:28.454Z,10.40
2023-02-19T03:59:39.305Z,10.80
2023-02-19T04:01:47.838Z,12.52
2023-02-19T04:03:59.507Z,10.35
2023-02-19T04:06:14.742Z,11.85
2023-02-19T04:08:23.273Z,13.35
2023-02-19T04:10:29.672Z,12.93
2023-02-19T04:12:35.251Z,10.88
2023-02-19T04:14:45.136Z,12.98
2023-02-19T04:16:55.846Z,17.30
2023-02-19T04:19:05.327Z,13.40
2023-02-19T04:21:13.547Z,16.52
2023-02-19T04:23:23.815Z,12.07
2023-02-19T04:25:30.250Z,12.68
2023-02-19T04:27:35.986Z,11.90
2023-02-19T04:29:40.706Z,15.48
2023-02-19T04:31:48.281Z,16.23
2023-02-19T04:33:53.452Z,17.00
2023-02-19T04:35:58.920Z,15.07
2023-02-19T04:38:06.780Z,18.75
2023-02-19T04:40:13.134Z,14.15
2023-02-19T04:42:18.636Z,20.80
2023-02-19T04:44:24.139Z,14.32
2023-02-19T04:46:29.188Z,20.85
2023-02-19T04:48:34.126Z,20.45
2023-02-19T04:50:41.699Z,15.27
2023-02-19T04:52:46.729Z,16.80
2023-02-19T04:54:54.520Z,19.05
2023-02-19T04:57:02.540Z,19.42
2023-02-19T04:59:07.851Z,13.57
2023-02-19T05:01:13.348Z,14.07
2023-02-19T05:03:21.616Z,12.52
2023-02-19T05:05:26.976Z,12.27
2023-02-19T05:07:32.198Z,16.10
2023-02-19T05:09:37.094Z,9.35
2023-02-19T05:11:44.997Z,19.88
2023-02-19T05:13:50.355Z,15.10
2023-02-19T05:16:00.293Z,16.63
2023-02-19T05:18:06.353Z,19.85
2023-02-19T05:20:14.986Z,7.32
2023-02-19T05:22:20.830Z,14.32
2023-02-19T05:24:27.596Z,13.82
2023-02-19T05:26:32.609Z,11.48
2023-02-19T05:28:41.647Z,12.57
2023-02-19T05:30:46.597Z,7.70
2023-02-19T05:32:52.105Z,10.00
2023-02-19T05:34:57.056Z,8.82
2023-02-19T05:37:02.316Z,11.55
2023-02-19T05:39:08.693Z,10.73
2023-02-19T05:41:15.368Z,15.10
2023-02-19T05:43:20.940Z,10.25
2023-02-19T05:45:28.558Z,11.32
2023-02-19T05:47:33.511Z,12.20
2023-02-19T05:49:38.755Z,14.05
2023-02-19T05:51:43.492Z,13.80
2023-02-19T05:53:49.346Z,11.90
2023-02-19T05:55:54.661Z,10.73
2023-02-19T05:57:59.811Z,11.88
2023-02-19T06:00:04.852Z,16.27
2023-02-19T06:02:12.990Z,16.65
2023-02-19T06:04:20.084Z,12.27
2023-02-19T06:06:25.376Z,12.18
2023-02-19T06:08:30.335Z,12.40
2023-02-19T06:10:36.735Z,19.42
2023-02-19T06:12:42.060Z,15.32
2023-02-19T06:14:46.936Z,14.43
2023-02-19T06:16:51.604Z,11.73
2023-02-19T06:19:00.412Z,12.60
2023-02-19T06:21:06.198Z,11.77
2023-02-19T06:23:11.093Z,15.40
2023-02-19T06:25:15.974Z,16.30
2023-02-19T06:27:21.107Z,16.30
2023-02-19T06:29:26.513Z,9.90
2023-02-19T06:31:31.386Z,12.70
2023-02-19T06:33:36.695Z,12.85
2023-02-19T06:35:46.257Z,13.40
2023-02-19T06:37:51.784Z,10.88
2023-02-19T06:39:58.990Z,17.35
2023-02-19T06:42:03.960Z,14.90
2023-02-19T06:44:11.866Z,18.27
2023-02-19T06:46:17.061Z,16.38
2023-02-19T06:48:22.067Z,14.93
2023-02-19T06:50:27.514Z,11.50
2023-02-19T06:52:35.296Z,13.40
2023-02-19T06:54:40.189Z,10.23
2023-02-19T06:56:48.736Z,13.60
2023-02-19T06:58:53.806Z,17.23
2023-02-19T07:01:00.894Z,11.70
2023-02-19T07:03:05.833Z,13.93
2023-02-19T07:05:11.112Z,9.77
2023-02-19T07:07:16.353Z,11.77
2023-02-19T07:09:25.513Z,20.98
2023-02-19T07:11:33.489Z,17.23
2023-02-19T07:13:38.267Z,14.13
2023-02-19T07:15:52.372Z,16.58
2023-02-19T07:17:58.203Z,16.38
2023-02-19T07:20:12.601Z,16.83
2023-02-19T07:22:17.676Z,13.50
2023-02-19T07:24:25.525Z,21.10
2023-02-19T07:26:30.443Z,17.15
2023-02-19T07:28:35.213Z,13.88
2023-02-19T07:30:40.076Z,15.40
2023-02-19T07:32:48.641Z,14.25
2023-02-19T07:34:53.571Z,16.83
2023-02-19T07:36:58.677Z,18.80
2023-02-19T07:39:04.093Z,18.15
2023-02-19T07:41:12.311Z,17.63
2023-02-19T07:43:17.329Z,14.75
2023-02-19T07:45:22.537Z,13.73
2023-02-19T07:47:33.042Z,14.77
2023-02-19T07:49:38.126Z,13.85
2023-02-19T07:51:44.022Z,12.25
2023-02-19T07:53:53.187Z,12.30
2023-02-19T07:56:02.798Z,12.65
2023-02-19T07:58:10.407Z,12.43
2023-02-19T08:00:16.860Z,13.25
2023-02-19T08:02:36.425Z,12.50
2023-02-19T08:04:48.782Z,13.32
2023-02-19T08:06:58.972Z,12.68
2023-02-19T08:09:04.012Z,20.23
2023-02-19T08:11:22.352Z,12.18
2023-02-19T08:13:31.278Z,17.48
2023-02-19T08:15:36.670Z,15.35
2023-02-19T08:17:41.793Z,14.63
2023-02-19T08:19:46.743Z,11.32
2023-02-19T08:21:51.634Z,15.95
2023-02-19T08:23:56.741Z,19.77
2023-02-19T08:26:03.532Z,12.63
2023-02-19T08:28:09.622Z,18.13
2023-02-19T08:30:17.412Z,13.23
2023-02-19T08:32:22.299Z,18.40
2023-02-19T08:34:27.323Z,13.77
2023-02-19T08:36:33.345Z,13.65
2023-02-19T08:38:39.771Z,14.73
2023-02-19T08:40:49.353Z,17.25
2023-02-19T08:42:54.482Z,14.20
2023-02-19T08:44:59.585Z,15.35
2023-02-19T08:47:08.181Z,14.32
2023-02-19T08:49:13.092Z,12.60
2023-02-19T08:51:18.209Z,14.93
2023-02-19T08:53:23.020Z,17.58
2023-02-19T08:55:28.115Z,12.52
2023-02-19T08:57:33.953Z,13.57
2023-02-19T08:59:41.774Z,13.68
2023-02-19T09:01:46.574Z,15.27
2023-02-19T09:03:54.094Z,15.35
2023-02-19T09:06:02.203Z,10.80
2023-02-19T09:08:08.112Z,16.33
2023-02-19T09:10:14.981Z,15.70
2023-02-19T09:12:20.123Z,15.60
2023-02-19T09:14:24.881Z,15.85
2023-02-19T09:16:30.224Z,12.40
2023-02-19T09:18:36.307Z,13.20
2023-02-19T09:20:46.438Z,14.43
2023-02-19T09:22:53.445Z,14.20
2023-02-19T09:24:58.871Z,11.60
2023-02-19T09:27:03.813Z,7.25
2023-02-19T09:29:11.030Z,15.85
2023-02-19T09:31:19.214Z,11.35
2023-02-19T09:33:24.211Z,7.85
2023-02-19T09:35:29.237Z,12.18
2023-02-19T09:37:39.570Z,10.60
2023-02-19T09:39:44.644Z,9.00
2023-02-19T09:41:51.948Z,11.38
2023-02-19T09:43:57.176Z,9.05
2023-02-19T09:46:07.125Z,13.02
2023-02-19T09:48:14.060Z,11.00
2023-02-19T09:50:24.528Z,12.13
2023-02-19T09:52:35.206Z,12.40
2023-02-19T09:54:43.885Z,9.80
2023-02-19T09:56:51.811Z,10.50
2023-02-19T09:59:01.045Z,7.50
2023-02-19T10:01:09.639Z,8.90
2023-02-19T10:03:25.702Z,7.00
2023-02-19T10:05:30.914Z,9.45
2023-02-19T10:07:42.113Z,5.20
2023-02-19T10:09:55.847Z,6.60
2023-02-19T10:12:02.749Z,4.80
2023-02-19T10:14:12.346Z,6.68
2023-02-19T10:16:22.539Z,5.28
2023-02-19T10:18:32.232Z,4.30
2023-02-19T10:20:37.050Z,4.70
2023-02-19T10:22:42.853Z,6.43
2023-02-19T10:24:54.924Z,5.25
2023-02-19T10:27:00.088Z,5.88
2023-02-19T10:29:05.330Z,3.50
2023-02-19T10:31:20.814Z,4.90
2023-02-19T10:33:26.553Z,5.90
2023-02-19T10:35:32.753Z,4.47
2023-02-19T10:37:39.838Z,4.20
2023-02-19T10:39:48.074Z,4.38
2023-02-19T10:41:56.918Z,6.43
2023-02-19T10:44:09.716Z,6.35
2023-02-19T10:46:21.354Z,4.35
2023-02-19T10:48:28.184Z,5.25
2023-02-19T10:50:35.485Z,7.47
2023-02-19T10:52:40.457Z,6.13
2023-02-19T10:54:48.766Z,7.05
2023-02-19T10:56:56.559Z,8.23
2023-02-19T10:59:19.180Z,5.93
2023-02-19T11:01:26.025Z,4.32
2023-02-19T11:03:30.873Z,6.90
2023-02-19T11:05:35.876Z,7.72
2023-02-19T11:07:42.439Z,6.85
2023-02-19T11:09:49.183Z,3.88
2023-02-19T11:11:58.678Z,3.60
2023-02-19T11:14:08.300Z,4.03
2023-02-19T11:16:13.488Z,6.75
2023-02-19T11:18:29.757Z,5.93
2023-02-19T11:20:35.932Z,5.20
2023-02-19T11:22:46.993Z,4.57
2023-02-19T11:24:57.266Z,3.22
2023-02-19T11:27:08.554Z,8.10
2023-02-19T11:29:22.742Z,7.75
2023-02-19T11:31:32.275Z,4.68
2023-02-19T11:33:38.133Z,5.40
2023-02-19T11:35:43.094Z,5.15
2023-02-19T11:38:00.166Z,9.55
2023-02-19T11:40:05.494Z,5.78
2023-02-19T11:42:33.754Z,4.80
2023-02-19T11:44:50.757Z,4.90
2023-02-19T11:47:05.610Z,3.28
2023-02-19T11:49:23.678Z,5.25
2023-02-19T11:51:57.796Z,4.07
2023-02-19T11:54:17.044Z,5.95
2023-02-19T11:56:28.130Z,5.93
2023-02-19T11:59:00.869Z,5.00
2023-02-19T12:01:16.720Z,3.97
2023-02-19T12:03:50.262Z,6.03
2023-02-19T12:06:20.426Z,11.30
2023-02-19T12:08:47.454Z,3.72
2023-02-19T12:11:06.288Z,8.02
2023-02-19T12:13:21.384Z,5.20
2023-02-19T12:15:48.570Z,5.13
2023-02-19T12:18:22.445Z,13.38
2023-02-19T12:20:33.348Z,4.53
2023-02-19T12:22:48.669Z,3.92
2023-02-19T12:25:26.694Z,8.57
2023-02-19T12:27:45.158Z,3.47
2023-02-19T12:30:08.399Z,6.15
2023-02-19T12:32:28.902Z,5.93
2023-02-19T12:34:50.486Z,4.47
2023-02-19T12:37:04.902Z,3.70
2023-02-19T12:39:19.169Z,6.00
2023-02-19T12:41:39.645Z,3.22
2023-02-19T12:43:49.924Z,6.00
2023-02-19T12:45:59.184Z,3.50
2023-02-19T12:48:15.283Z,6.32
2023-02-19T12:50:24.551Z,7.63
2023-02-19T12:52:37.019Z,6.80
2023-02-19T12:54:47.089Z,5.65
2023-02-19T12:57:00.294Z,4.57
2023-02-19T13:01:18.103Z,5.35
2023-02-19T13:03:30.890Z,3.70
2023-02-19T13:05:47.051Z,2.50
2023-02-19T13:08:00.620Z,2.78
2023-02-19T13:10:28.672Z,3.05
2023-02-19T13:12:37.992Z,4.70
2023-02-19T13:14:48.773Z,3.17
2023-02-19T13:17:00.551Z,2.67
2023-02-19T13:19:09.292Z,4.60
2023-02-19T13:21:38.664Z,3.30
2023-02-19T13:23:58.528Z,2.92
2023-02-19T13:26:33.781Z,3.10
2023-02-19T13:28:51.438Z,3.70
2023-02-19T13:31:19.386Z,4.97
2023-02-19T13:33:37.126Z,4.90
2023-02-19T13:39:11.051Z,2.90
2023-02-19T13:41:31.245Z,2.97
2023-02-19T13:43:40.429Z,2.28
2023-02-19T13:45:48.766Z,1.98
2023-02-19T13:48:03.727Z,3.13
2023-02-19T13:50:11.350Z,3.28
2023-02-19T13:52:51.491Z,3.17
2023-02-19T13:55:26.013Z,1.90
2023-02-19T13:57:33.838Z,1.20
2023-02-19T13:59:42.830Z,1.10
2023-02-19T14:02:32.478Z,1.27
2023-02-19T14:04:51.693Z,3.58
2023-02-19T14:07:32.116Z,3.72
2023-02-19T14:09:51.793Z,2.83
2023-02-19T14:12:08.260Z,2.58
2023-02-19T14:14:38.343Z,2.95
2023-02-19T14:17:01.501Z,2.75
2023-02-19T14:19:06.856Z,3.17
2023-02-19T14:21:19.854Z,1.02
2023-02-19T14:23:27.150Z,1.80
2023-02-19T14:25:38.515Z,1.35
2023-02-19T14:27:43.583Z,1.98
2023-02-19T14:29:51.740Z,3.45
2023-02-19T14:32:01.180Z,1.52
2023-02-19T14:34:11.462Z,1.45
2023-02-19T14:36:30.497Z,1.48
2023-02-19T14:38:39.858Z,2.25
2023-02-19T14:40:55.233Z,4.05
2023-02-19T14:43:01.874Z,4.30
2023-02-19T14:45:11.004Z,1.02
2023-02-19T14:47:20.688Z,1.45
2023-02-19T14:49:32.055Z,1.45
2023-02-19T14:51:42.126Z,1.58
2023-02-19T14:53:51.574Z,1.63
2023-02-19T14:55:59.414Z,2.58
2023-02-19T14:58:11.419Z,3.38
2023-02-19T15:00:31.076Z,1.50
2023-02-19T15:02:46.561Z,2.47
2023-02-19T15:04:51.572Z,1.48
2023-02-19T15:06:57.952Z,1.98
2023-02-19T15:09:07.211Z,1.10
2023-02-19T15:11:17.678Z,1.65
2023-02-19T15:13:29.939Z,2.25
2023-02-19T15:15:44.547Z,2.13
2023-02-19T15:17:54.356Z,1.60
2023-02-19T15:20:03.426Z,3.85
2023-02-19T15:22:09.013Z,3.72
2023-02-19T15:24:17.655Z,1.50
2023-02-19T15:26:25.421Z,2.22
2023-02-19T15:28:35.906Z,3.58
2023-02-19T15:30:43.814Z,1.77
2023-02-19T15:32:55.812Z,2.33
2023-02-19T15:35:05.262Z,1.80
2023-02-19T15:37:15.580Z,3.40
2023-02-19T15:39:25.668Z,2.10
2023-02-19T15:41:35.094Z,2.42
2023-02-19T15:43:45.222Z,1.30
2023-02-19T15:45:54.956Z,5.50
2023-02-19T15:48:05.565Z,1.23
2023-02-19T15:50:15.228Z,1.40
2023-02-19T15:52:29.523Z,1.90
2023-02-19T15:54:37.712Z,1.33
2023-02-19T15:56:53.359Z,2.38
2023-02-19T15:59:07.808Z,3.95
2023-02-19T16:01:23.374Z,1.10
2023-02-19T16:03:30.117Z,1.65
2023-02-19T16:05:40.212Z,1.10
2023-02-19T16:07:49.125Z,3.47
2023-02-19T16:10:09.292Z,2.40
2023-02-19T16:12:25.076Z,1.38
2023-02-19T16:14:37.715Z,2.40
2023-02-19T16:16:47.976Z,1.02
2023-02-19T16:18:54.753Z,1.42
2023-02-19T16:21:00.262Z,1.33
2023-02-19T16:23:07.318Z,1.50
2023-02-19T16:25:28.093Z,3.50
2023-02-19T16:27:36.675Z,3.05
2023-02-19T16:29:42.008Z,1.30
2023-02-19T16:31:54.606Z,1.90
2023-02-19T16:34:17.953Z,1.58
2023-02-19T16:36:26.701Z,2.63
2023-02-19T16:38:31.887Z,3.58
2023-02-19T16:41:09.902Z,3.10
2023-02-19T16:43:33.468Z,2.45
2023-02-19T16:45:38.656Z,3.58
2023-02-19T16:47:48.656Z,3.20
2023-02-19T16:49:53.621Z,4.43
2023-02-19T16:51:58.751Z,3.33
2023-02-19T16:54:05.068Z,3.22
2023-02-19T16:56:19.058Z,2.42
2023-02-19T16:58:24.459Z,3.13
2023-02-19T17:00:32.274Z,3.60
2023-02-19T17:02:37.213Z,4.45
2023-02-19T17:04:47.332Z,4.85
2023-02-19T17:06:52.104Z,8.70
2023-02-19T17:08:59.477Z,7.25
2023-02-19T17:11:05.576Z,4.32
2023-02-19T17:13:11.598Z,6.03
2023-02-19T17:15:17.380Z,4.45
2023-02-19T17:17:22.244Z,4.80
2023-02-19T17:19:31.066Z,4.60
2023-02-19T17:21:38.877Z,8.02
2023-02-19T17:23:44.625Z,5.93
2023-02-19T17:25:51.476Z,5.25
2023-02-19T17:27:58.565Z,4.65
2023-02-19T17:30:03.799Z,4.75
2023-02-19T17:32:09.689Z,5.25
2023-02-19T17:34:15.842Z,4.70
2023-02-19T17:36:22.910Z,4.88
2023-02-19T17:38:30.349Z,4.35
2023-02-19T17:40:38.531Z,5.28
2023-02-19T17:42:48.102Z,9.55
2023-02-19T17:44:53.567Z,7.50
2023-02-19T17:46:58.717Z,7.93
2023-02-19T17:49:03.860Z,5.20
2023-02-19T17:51:09.855Z,5.15
2023-02-19T17:53:15.505Z,5.57
2023-02-19T17:55:24.809Z,5.95
2023-02-19T17:57:33.606Z,5.80
2023-02-19T17:59:43.057Z,8.65
2023-02-19T18:01:47.992Z,6.57
2023-02-19T18:03:53.277Z,6.28
2023-02-19T18:06:01.006Z,7.47
2023-02-19T18:08:09.413Z,6.18
2023-02-19T18:10:15.468Z,7.10
2023-02-19T18:12:22.960Z,5.63
2023-02-19T18:14:27.793Z,7.40
2023-02-19T18:16:32.763Z,7.93
2023-02-19T18:18:37.893Z,5.70
2023-02-19T18:20:44.210Z,6.78
2023-02-19T18:22:52.560Z,7.97
2023-02-19T18:24:59.119Z,8.80
2023-02-19T18:27:04.490Z,7.07
2023-02-19T18:29:18.680Z,10.98
2023-02-19T18:31:23.684Z,7.40
2023-02-19T18:33:28.533Z,8.88
2023-02-19T18:35:34.877Z,8.80
2023-02-19T18:37:39.901Z,9.18
2023-02-19T18:39:50.321Z,7.63
2023-02-19T18:41:55.535Z,6.07
2023-02-19T18:44:00.636Z,6.93
2023-02-19T18:46:11.184Z,6.47
2023-02-19T18:48:17.142Z,7.63
2023-02-19T18:50:22.926Z,7.85
2023-02-19T18:52:29.286Z,6.50
2023-02-19T18:54:35.323Z,8.40
2023-02-19T18:56:45.945Z,9.77
2023-02-19T18:58:51.500Z,7.70
2023-02-19T19:00:58.259Z,7.28
2023-02-19T19:03:06.777Z,10.35
2023-02-19T19:05:14.145Z,7.28
2023-02-19T19:07:20.660Z,14.98
2023-02-19T19:09:25.702Z,8.95
2023-02-19T19:11:30.554Z,8.93
2023-02-19T19:13:35.496Z,9.35
2023-02-19T19:15:45.112Z,8.00
2023-02-19T19:17:52.949Z,7.22
2023-02-19T19:20:00.529Z,7.65
2023-02-19T19:22:05.533Z,8.85
2023-02-19T19:24:11.196Z,9.75
2023-02-19T19:26:17.894Z,9.07
2023-02-19T19:28:22.903Z,9.43
2023-02-19T19:30:27.944Z,8.85
2023-02-19T19:32:32.998Z,10.80
2023-02-19T19:34:40.564Z,11.25
2023-02-19T19:36:49.494Z,9.10
2023-02-19T19:38:54.617Z,10.15
2023-02-19T19:41:01.898Z,8.93
2023-02-19T19:43:06.934Z,8.48
2023-02-19T19:45:12.551Z,8.00
2023-02-19T19:47:21.391Z,9.48
2023-02-19T19:49:26.778Z,10.52
2023-02-19T19:51:35.261Z,10.10
2023-02-19T19:53:42.954Z,9.02
2023-02-19T19:55:50.650Z,10.07
2023-02-19T19:57:55.615Z,10.43
2023-02-19T20:00:00.955Z,9.80
2023-02-19T20:02:06.324Z,7.47
2023-02-19T20:04:11.108Z,9.07
2023-02-19T20:06:18.245Z,7.22
2023-02-19T20:08:23.082Z,10.52
2023-02-19T20:10:30.755Z,7.85
2023-02-19T20:12:35.709Z,9.82
2023-02-19T20:14:40.567Z,7.22
2023-02-19T20:16:48.746Z,7.03
2023-02-19T20:18:53.745Z,10.90
2023-02-19T20:20:59.910Z,6.32
2023-02-19T20:23:05.376Z,8.95
2023-02-19T20:25:11.314Z,8.13
2023-02-19T20:27:22.398Z,8.73
2023-02-19T20:29:29.074Z,9.05
2023-02-19T20:31:34.130Z,7.47
2023-02-19T20:33:42.132Z,9.32
2023-02-19T20:35:47.088Z,8.80
2023-02-19T20:37:52.041Z,8.70
2023-02-19T20:39:56.970Z,8.35
2023-02-19T20:42:08.551Z,8.32
2023-02-19T20:44:16.284Z,10.73
2023-02-19T20:46:21.265Z,11.82
2023-02-19T20:48:26.065Z,10.35
2023-02-19T20:50:31.016Z,10.95
2023-02-19T20:52:38.744Z,11.13
2023-02-19T20:54:47.583Z,11.75
2023-02-19T20:56:54.164Z,11.77
2023-02-19T20:58:59.003Z,9.30
2023-02-19T21:01:07.344Z,11.57
2023-02-19T21:03:12.216Z,11.88
2023-02-19T21:05:17.492Z,12.20
2023-02-19T21:07:22.407Z,11.75
2023-02-19T21:09:28.693Z,13.43
2023-02-19T21:11:33.870Z,12.70
2023-02-19T21:13:38.714Z,12.60
2023-02-19T21:15:43.695Z,16.80
2023-02-19T21:17:51.655Z,15.25
2023-02-19T21:19:56.699Z,14.70
2023-02-19T21:22:04.955Z,21.10
2023-02-19T21:24:12.289Z,16.15
2023-02-19T21:26:17.197Z,16.95
2023-02-19T21:28:22.880Z,16.80
2023-02-19T21:30:27.752Z,14.88
2023-02-19T21:32:32.793Z,12.95
2023-02-19T21:34:40.823Z,15.80
2023-02-19T21:36:46.311Z,14.02
2023-02-19T21:38:51.320Z,13.43
2023-02-19T21:40:56.529Z,11.23
2023-02-19T21:43:02.723Z,12.20
2023-02-19T21:45:08.531Z,14.75
2023-02-19T21:47:15.320Z,12.02
2023-02-19T21:49:21.081Z,17.67
2023-02-19T21:51:35.317Z,14.55
2023-02-19T21:53:40.057Z,11.82
2023-02-19T21:55:57.872Z,13.57
2023-02-19T21:58:02.939Z,13.52
2023-02-19T22:00:10.079Z,13.27
2023-02-19T22:02:14.911Z,13.45
2023-02-19T22:04:22.399Z,14.23
2023-02-19T22:06:29.322Z,14.25
2023-02-19T22:08:36.811Z,14.85
2023-02-19T22:10:42.709Z,18.35
2023-02-19T22:12:48.006Z,15.30
2023-02-19T22:14:53.154Z,15.82
2023-02-19T22:16:57.906Z,13.95
2023-02-19T22:19:03.459Z,14.32
2023-02-19T22:21:09.623Z,13.20
2023-02-19T22:23:15.052Z,18.83
2023-02-19T22:25:22.730Z,13.93
2023-02-19T22:27:27.785Z,12.80
2023-02-19T22:29:33.547Z,13.95
2023-02-19T22:31:39.020Z,12.50
2023-02-19T22:33:44.002Z,14.98
2023-02-19T22:35:51.822Z,15.77
2023-02-19T22:37:57.003Z,17.75
2023-02-19T22:40:02.313Z,15.10
2023-02-19T22:42:12.385Z,12.73
2023-02-19T22:44:17.670Z,19.75
2023-02-19T22:46:26.231Z,15.13
2023-02-19T22:48:32.267Z,18.90
2023-02-19T22:50:37.060Z,17.77
2023-02-19T22:52:41.960Z,14.50
2023-02-19T22:54:47.025Z,17.58
2023-02-19T22:56:51.712Z,17.23
2023-02-19T22:59:00.730Z,15.60
2023-02-19T23:01:05.952Z,17.73
2023-02-19T23:03:10.770Z,16.20
2023-02-19T23:05:18.085Z,19.63
2023-02-19T23:07:22.873Z,19.70
2023-02-19T23:09:30.848Z,15.73
2023-02-19T23:11:39.505Z,14.32
2023-02-19T23:13:50.371Z,18.25
2023-02-19T23:16:01.364Z,21.27
2023-02-19T23:18:08.508Z,16.75
2023-02-19T23:20:14.913Z,17.63
2023-02-19T23:22:19.639Z,19.27
2023-02-19T23:24:24.659Z,16.70
2023-02-19T23:26:29.917Z,21.52
2023-02-19T23:28:34.934Z,20.70
2023-02-19T23:30:39.870Z,18.98
2023-02-19T23:32:47.786Z,18.23
2023-02-19T23:34:52.726Z,17.88
2023-02-19T23:37:00.424Z,15.93
2023-02-19T23:39:05.402Z,19.58
2023-02-19T23:41:13.243Z,18.55
2023-02-19T23:43:18.212Z,17.23
2023-02-19T23:45:23.202Z,16.60
2023-02-19T23:47:31.600Z,19.00
2023-02-19T23:49:42.301Z,18.85
2023-02-19T23:51:48.224Z,19.75
2023-02-19T23:53:52.932Z,17.85
2023-02-19T23:55:57.727Z,22.55
2023-02-19T23:58:02.691Z,19.58
